Time;durP1;ratioP1;P1;durP2;ratioP2;P2;SDS_P1;SDS_P2;PMS_P1;PMS_P2;Temp;Humidity;BMP_temperature;BMP_pressure;BME280_temperature;BME280_humidity;BME280_pressure;Samples;Min_cycle;Max_cycle;Signal;HPM_P1;HPM_P2
2021/12/10 00:00:28;;;;;;;31.88;15.95;;;5.10;99.90;;;;;;5114534;28;20483;-66
2021/12/10 00:02:54;;;;;;;27.83;15.05;;;5.20;99.90;;;;;;5114838;28;20040;-66
2021/12/10 00:05:27;;;;;;;29.20;15.40;;;5.20;99.90;;;;;;5114225;28;20063;-66
2021/12/10 00:07:55;;;;;;;26.33;14.73;;;5.50;99.90;;;;;;5114442;28;20040;-66
2021/12/10 00:10:24;;;;;;;30.98;16.13;;;5.20;99.90;;;;;;5114384;28;20048;-66
2021/12/10 00:12:51;;;;;;;30.50;16.88;;;5.20;99.90;;;;;;5095953;28;20484;-66
2021/12/10 00:15:20;;;;;;;30.02;16.13;;;5.20;99.90;;;;;;5114190;28;20054;-66
2021/12/10 00:17:47;;;;;;;25.73;16.27;;;5.20;99.90;;;;;;5114121;28;20051;-66
2021/12/10 00:20:14;;;;;;;29.20;15.48;;;5.10;99.90;;;;;;5114444;28;20035;-66
2021/12/10 00:22:51;;;;;;;27.27;15.13;;;5.20;99.90;;;;;;5114135;28;20484;-66
2021/12/10 00:25:20;;;;;;;32.40;16.65;;;5.20;99.90;;;;;;5114165;28;20059;-66
2021/12/10 00:27:48;;;;;;;27.10;16.00;;;5.20;99.90;;;;;;5114051;28;20055;-66
2021/12/10 00:30:43;;;;;;;29.17;15.88;;;5.20;99.90;;;;;;5096127;28;20475;-66
2021/12/10 00:33:20;;;;;;;28.92;15.85;;;5.20;99.90;;;;;;5113966;28;20040;-66
2021/12/10 00:35:47;;;;;;;33.13;16.70;;;5.20;99.90;;;;;;5114609;28;20047;-66
2021/12/10 00:38:13;;;;;;;30.15;16.52;;;5.20;99.90;;;;;;5113979;28;20054;-66
2021/12/10 00:40:40;;;;;;;31.52;15.70;;;5.20;99.90;;;;;;5113944;28;20499;-66
2021/12/10 00:43:06;;;;;;;30.25;16.08;;;5.20;99.90;;;;;;5113938;28;20089;-66
2021/12/10 00:45:33;;;;;;;25.88;15.65;;;5.20;99.90;;;;;;5114702;28;20051;-66
2021/12/10 00:47:59;;;;;;;29.50;15.55;;;5.10;99.90;;;;;;5113821;28;20058;-66
2021/12/10 00:50:32;;;;;;;26.27;15.82;;;5.50;99.90;;;;;;5113910;28;20049;-66
2021/12/10 00:52:59;;;;;;;27.90;15.82;;;5.50;99.90;;;;;;5118058;28;20040;-66
2021/12/10 00:55:26;;;;;;;28.30;15.98;;;5.40;99.90;;;;;;5118029;28;20048;-66
2021/12/10 00:57:53;;;;;;;27.33;15.25;;;5.30;99.90;;;;;;5118551;28;20043;-66
2021/12/10 01:00:32;;;;;;;30.65;16.95;;;5.90;99.90;;;;;;5117952;28;20039;-67
2021/12/10 01:02:59;;;;;;;30.73;16.13;;;5.20;99.90;;;;;;5118499;28;20036;-66
2021/12/10 01:05:26;;;;;;;28.42;15.80;;;5.70;99.90;;;;;;5095911;28;20052;-66
2021/12/10 01:07:53;;;;;;;28.58;15.60;;;5.20;99.90;;;;;;5096226;28;20117;-66
2021/12/10 01:10:27;;;;;;;29.83;16.23;;;5.20;99.90;;;;;;5097355;28;20048;-66
2021/12/10 01:12:56;;;;;;;28.70;15.93;;;5.20;99.90;;;;;;5098143;28;20043;-66
2021/12/10 01:15:46;;;;;;;33.15;16.70;;;5.60;99.90;;;;;;5097284;28;20040;-66
2021/12/10 01:24:16;;;;;;;28.63;15.88;;;5.20;99.90;;;;;;5096422;28;20480;-66
2021/12/10 01:29:13;;;;;;;32.53;15.80;;;5.20;99.90;;;;;;5097189;28;20134;-66
2021/12/10 01:31:41;;;;;;;26.27;15.10;;;5.20;99.90;;;;;;5096343;28;20048;-67
2021/12/10 01:34:09;;;;;;;31.27;16.38;;;5.70;99.90;;;;;;5096489;28;20403;-66
2021/12/10 01:36:36;;;;;;;29.38;16.02;;;5.20;99.90;;;;;;5079011;28;20051;-66
2021/12/10 01:39:05;;;;;;;30.67;15.63;;;5.20;99.90;;;;;;5096858;28;20080;-66
2021/12/10 01:41:36;;;;;;;28.38;15.80;;;5.20;99.90;;;;;;5096792;28;20058;-66
2021/12/10 01:44:14;;;;;;;28.80;15.00;;;5.10;99.90;;;;;;5096903;28;20118;-67
2021/12/10 01:46:41;;;;;;;28.35;15.32;;;5.30;99.90;;;;;;5096767;28;20059;-66
2021/12/10 01:49:09;;;;;;;30.60;15.35;;;5.30;99.90;;;;;;5095836;28;20059;-66
2021/12/10 01:51:37;;;;;;;32.22;16.33;;;5.30;99.90;;;;;;5096587;28;20140;-66
2021/12/10 01:54:40;;;;;;;28.77;14.95;;;5.40;99.90;;;;;;5096481;28;20036;-66
2021/12/10 01:57:08;;;;;;;30.23;15.00;;;5.30;99.90;;;;;;5073104;28;20056;-66
2021/12/10 01:59:36;;;;;;;30.88;15.35;;;5.80;99.90;;;;;;5096420;28;20044;-66
2021/12/10 02:02:08;;;;;;;27.25;14.70;;;5.30;99.90;;;;;;5095982;28;20052;-66
2021/12/10 02:04:36;;;;;;;29.52;14.63;;;5.30;99.90;;;;;;5099926;28;20549;-66
2021/12/10 02:07:05;;;;;;;28.67;14.68;;;5.90;99.90;;;;;;5115440;28;20052;-66
2021/12/10 02:09:31;;;;;;;26.17;13.95;;;5.30;99.90;;;;;;5097231;28;20082;-66
2021/12/10 02:11:56;;;;;;;22.15;13.98;;;5.30;99.90;;;;;;5115448;28;20048;-66
2021/12/10 02:14:22;;;;;;;24.83;14.55;;;5.30;99.90;;;;;;5115332;28;20046;-66
2021/12/10 02:16:50;;;;;;;28.48;14.90;;;5.40;99.90;;;;;;5115388;28;20039;-66
2021/12/10 02:19:16;;;;;;;26.73;14.50;;;5.20;99.90;;;;;;5097174;28;20040;-66
2021/12/10 02:21:42;;;;;;;28.35;15.52;;;5.80;99.90;;;;;;5097245;28;20475;-66
2021/12/10 02:24:10;;;;;;;27.35;14.75;;;5.30;99.90;;;;;;5115317;28;20043;-66
2021/12/10 02:26:43;;;;;;;27.42;15.77;;;5.20;99.90;;;;;;5115173;28;20048;-67
2021/12/10 02:29:10;;;;;;;28.38;16.02;;;6.40;99.90;;;;;;5115184;28;20552;-66
2021/12/10 02:31:36;;;;;;;29.30;15.48;;;5.30;99.90;;;;;;5114813;28;20487;-66
2021/12/10 02:34:03;;;;;;;27.60;13.95;;;5.30;99.90;;;;;;5096802;28;20602;-67
2021/12/10 02:36:30;;;;;;;28.55;15.32;;;5.50;99.90;;;;;;5096964;28;20047;-66
2021/12/10 02:38:57;;;;;;;26.02;14.82;;;5.30;99.90;;;;;;5115025;28;20119;-67
2021/12/10 02:41:29;;;;;;;27.63;13.52;;;5.30;99.90;;;;;;5114979;28;20049;-66
2021/12/10 02:43:56;;;;;;;28.30;15.60;;;5.30;99.90;;;;;;5115037;28;20048;-66
2021/12/10 02:46:22;;;;;;;24.98;14.57;;;5.50;99.90;;;;;;5097765;28;20039;-66
2021/12/10 02:48:48;;;;;;;25.75;14.82;;;5.30;99.90;;;;;;5114762;28;20073;-66
2021/12/10 02:51:16;;;;;;;24.98;14.27;;;5.20;99.90;;;;;;5097195;28;20086;-66
2021/12/10 02:53:45;;;;;;;25.35;13.75;;;5.60;99.90;;;;;;5096587;28;20114;-66
2021/12/10 02:56:16;;;;;;;22.63;13.07;;;5.30;99.90;;;;;;5114734;28;20100;-66
2021/12/10 02:58:44;;;;;;;25.35;14.02;;;5.50;99.90;;;;;;5114711;28;20051;-66
2021/12/10 03:01:35;;;;;;;23.38;13.68;;;5.20;99.90;;;;;;5096440;28;20458;-66
2021/12/10 03:04:03;;;;;;;23.38;13.07;;;5.80;99.90;;;;;;5113842;28;20048;-66
2021/12/10 03:06:30;;;;;;;25.40;13.77;;;5.20;99.90;;;;;;5076305;28;1098586;-66
2021/12/10 03:08:58;;;;;;;23.25;12.18;;;5.30;99.90;;;;;;5115621;28;20138;-66
2021/12/10 03:11:30;;;;;;;22.20;12.15;;;5.70;99.90;;;;;;5115571;28;20048;-66
2021/12/10 03:13:56;;;;;;;24.38;12.10;;;5.30;99.90;;;;;;5114804;28;20139;-66
2021/12/10 03:16:23;;;;;;;19.77;12.07;;;5.70;99.90;;;;;;5115497;28;20048;-66
2021/12/10 03:18:49;;;;;;;19.75;11.73;;;5.30;99.90;;;;;;5115662;28;20365;-66
2021/12/10 03:21:15;;;;;;;20.13;10.73;;;5.30;99.90;;;;;;5115965;28;20125;-66
2021/12/10 03:23:44;;;;;;;18.95;11.27;;;5.60;99.90;;;;;;5115331;28;20040;-66
2021/12/10 03:26:12;;;;;;;20.92;11.00;;;5.30;99.90;;;;;;5115301;28;20059;-67
2021/12/10 03:28:41;;;;;;;17.63;10.57;;;5.30;99.90;;;;;;5114935;28;20568;-66
2021/12/10 03:31:07;;;;;;;16.45;9.18;;;5.20;99.90;;;;;;5115195;28;20051;-66
2021/12/10 03:33:34;;;;;;;11.68;7.28;;;5.30;99.90;;;;;;5115613;28;20039;-66
2021/12/10 03:36:00;;;;;;;17.67;8.25;;;5.30;99.90;;;;;;5097456;28;20127;-66
2021/12/10 03:38:27;;;;;;;15.70;7.55;;;5.40;99.90;;;;;;5115040;28;20051;-66
2021/12/10 03:40:54;;;;;;;16.00;8.88;;;6.40;99.90;;;;;;5115265;28;20391;-66
2021/12/10 03:43:23;;;;;;;18.10;9.15;;;5.20;99.90;;;;;;5115002;28;20521;-66
2021/12/10 03:45:52;;;;;;;15.55;9.45;;;5.20;99.90;;;;;;5096715;28;20112;-67
2021/12/10 03:48:25;;;;;;;18.15;10.13;;;5.20;99.90;;;;;;5114794;28;20120;-66
2021/12/10 03:50:53;;;;;;;21.25;9.60;;;5.20;99.90;;;;;;5115523;28;20092;-67
2021/12/10 03:53:19;;;;;;;15.05;8.90;;;5.40;99.90;;;;;;5115339;28;20068;-66
2021/12/10 03:55:46;;;;;;;15.75;9.45;;;5.20;99.90;;;;;;5114808;28;20492;-66
2021/12/10 03:58:12;;;;;;;17.83;8.32;;;5.20;99.90;;;;;;5115267;28;20051;-66
2021/12/10 04:00:50;;;;;;;15.77;9.32;;;5.60;99.90;;;;;;5114621;28;20088;-66
2021/12/10 04:03:18;;;;;;;21.27;8.80;;;5.20;99.90;;;;;;5114595;28;20036;-66
2021/12/10 04:05:44;;;;;;;15.98;8.98;;;5.20;99.90;;;;;;5095921;28;20062;-66
2021/12/10 04:08:10;;;;;;;18.90;9.75;;;5.80;99.90;;;;;;5114493;28;20050;-66
2021/12/10 04:10:37;;;;;;;16.63;9.13;;;5.80;99.90;;;;;;5114519;28;20044;-66
2021/12/10 04:13:03;;;;;;;18.38;9.20;;;5.40;99.90;;;;;;5114360;28;20070;-66
2021/12/10 04:15:29;;;;;;;17.90;9.30;;;5.20;99.90;;;;;;5114996;28;20046;-66
2021/12/10 04:17:56;;;;;;;20.75;10.23;;;5.20;99.90;;;;;;5114348;28;20100;-66
2021/12/10 04:20:25;;;;;;;16.60;9.70;;;5.20;99.90;;;;;;5079995;28;20051;-66
2021/12/10 04:22:53;;;;;;;21.83;10.55;;;5.20;99.90;;;;;;5114319;28;20048;-66
2021/12/10 04:25:21;;;;;;;19.10;10.20;;;5.20;99.90;;;;;;5114496;28;20372;-66
2021/12/10 04:27:48;;;;;;;19.50;11.27;;;5.10;99.90;;;;;;5096343;28;20048;-66
2021/12/10 04:30:15;;;;;;;20.27;10.25;;;5.20;99.90;;;;;;5114256;28;20126;-66
2021/12/10 04:32:42;;;;;;;20.30;11.00;;;5.10;99.90;;;;;;5113769;28;20487;-66
2021/12/10 04:35:09;;;;;;;19.00;11.32;;;5.20;99.90;;;;;;5096112;28;20051;-66
2021/12/10 04:37:36;;;;;;;20.25;12.00;;;5.20;99.90;;;;;;5096267;28;20058;-66
2021/12/10 04:40:05;;;;;;;18.90;11.40;;;5.20;99.90;;;;;;5095870;28;20499;-66
2021/12/10 04:42:31;;;;;;;20.73;12.27;;;5.20;99.90;;;;;;5114146;28;20086;-67
2021/12/10 04:44:59;;;;;;;22.42;12.10;;;5.30;99.90;;;;;;5114113;28;20052;-66
2021/12/10 04:47:26;;;;;;;18.38;11.20;;;5.30;99.90;;;;;;5096095;28;20050;-66
2021/12/10 04:49:52;;;;;;;20.10;11.65;;;5.20;99.90;;;;;;5114053;28;20518;-66
2021/12/10 04:52:18;;;;;;;19.77;10.50;;;5.20;99.90;;;;;;5114039;28;20048;-66
2021/12/10 04:54:44;;;;;;;23.85;12.30;;;5.30;99.90;;;;;;5113950;28;20035;-66
2021/12/10 04:57:10;;;;;;;21.58;12.48;;;5.20;99.90;;;;;;5096011;28;20054;-66
2021/12/10 04:59:38;;;;;;;21.55;12.25;;;5.20;99.90;;;;;;5096840;28;20097;-66
2021/12/10 05:02:07;;;;;;;23.52;12.50;;;5.20;99.90;;;;;;5114005;28;20100;-66
2021/12/10 05:04:33;;;;;;;23.17;12.32;;;5.10;99.90;;;;;;5113638;28;20059;-66
2021/12/10 05:07:00;;;;;;;25.63;13.07;;;5.20;99.90;;;;;;5114818;28;20075;-66
2021/12/10 05:09:27;;;;;;;22.67;12.00;;;5.20;99.90;;;;;;5095723;28;20555;-66
2021/12/10 05:11:54;;;;;;;23.23;12.95;;;5.20;99.90;;;;;;5095792;28;20039;-66
2021/12/10 05:14:20;;;;;;;25.85;14.98;;;5.50;99.90;;;;;;5113749;28;20043;-66
2021/12/10 05:16:48;;;;;;;25.15;14.82;;;5.20;99.90;;;;;;5113854;28;20475;-66
2021/12/10 05:19:20;;;;;;;24.45;14.60;;;5.20;99.90;;;;;;5113686;28;20126;-66
2021/12/10 05:21:48;;;;;;;27.50;14.70;;;5.20;99.90;;;;;;5113810;28;20101;-66
2021/12/10 05:24:14;;;;;;;25.10;14.60;;;5.40;99.90;;;;;;5114307;28;20123;-66
2021/12/10 05:26:40;;;;;;;23.15;14.88;;;5.10;99.90;;;;;;5095550;28;20059;-66
2021/12/10 05:29:07;;;;;;;25.80;13.38;;;5.60;99.90;;;;;;5096057;28;20039;-66
2021/12/10 05:31:39;;;;;;;25.83;14.77;;;5.10;99.90;;;;;;5113693;28;20055;-66
2021/12/10 05:34:06;;;;;;;23.80;14.30;;;5.10;99.90;;;;;;5113922;28;20055;-66
2021/12/10 05:36:32;;;;;;;24.02;13.75;;;5.10;99.90;;;;;;5095413;28;20554;-66
2021/12/10 05:38:58;;;;;;;22.52;13.23;;;5.10;99.90;;;;;;5099172;28;20047;-66
2021/12/10 05:41:24;;;;;;;21.90;14.30;;;4.80;99.90;;;;;;5117367;28;20122;-66
2021/12/10 05:43:50;;;;;;;21.33;13.45;;;5.10;99.90;;;;;;5117327;28;20039;-66
2021/12/10 05:46:17;;;;;;;22.10;13.02;;;4.90;99.90;;;;;;5082442;28;20083;-66
2021/12/10 05:48:43;;;;;;;21.98;12.55;;;5.00;99.90;;;;;;5117107;28;20055;-66
2021/12/10 05:51:10;;;;;;;21.52;12.43;;;4.80;99.90;;;;;;5117807;28;20047;-66
2021/12/10 05:53:36;;;;;;;20.60;12.20;;;5.60;99.90;;;;;;5117045;28;20051;-66
2021/12/10 05:56:03;;;;;;;24.50;12.52;;;4.50;99.90;;;;;;5117053;28;20048;-66
2021/12/10 05:58:29;;;;;;;22.70;13.77;;;4.70;99.90;;;;;;5117571;28;20126;-66
2021/12/10 06:01:04;;;;;;;21.50;12.48;;;4.70;99.90;;;;;;5116928;28;20118;-66
2021/12/10 06:03:36;;;;;;;21.08;12.60;;;4.70;99.90;;;;;;5117291;28;20436;-66
2021/12/10 06:06:03;;;;;;;19.40;13.18;;;5.10;99.90;;;;;;5082331;28;20052;-66
2021/12/10 06:08:29;;;;;;;21.50;13.40;;;5.70;99.90;;;;;;5117344;28;20052;-66
2021/12/10 06:11:01;;;;;;;20.33;12.55;;;4.70;99.90;;;;;;5099573;28;20380;-66
2021/12/10 06:13:27;;;;;;;20.25;11.77;;;5.10;99.90;;;;;;5116829;28;20247;-66
2021/12/10 06:15:53;;;;;;;21.95;12.45;;;4.90;99.90;;;;;;5116371;28;20491;-66
2021/12/10 06:18:19;;;;;;;20.15;12.48;;;5.20;99.90;;;;;;5116577;28;20055;-66
2021/12/10 06:20:48;;;;;;;19.67;11.65;;;4.70;99.90;;;;;;5117126;28;20055;-66
2021/12/10 06:23:15;;;;;;;19.30;11.25;;;4.60;99.90;;;;;;5116601;28;20452;-66
2021/12/10 06:25:41;;;;;;;17.40;11.50;;;4.60;99.90;;;;;;5116512;28;20126;-66
2021/12/10 06:28:07;;;;;;;18.30;11.30;;;4.90;99.90;;;;;;5116730;28;20044;-66
2021/12/10 06:30:39;;;;;;;19.80;10.93;;;4.70;99.90;;;;;;5116295;28;20440;-66
2021/12/10 06:33:08;;;;;;;17.50;10.98;;;4.80;99.90;;;;;;5116531;28;20051;-66
2021/12/10 06:35:35;;;;;;;16.20;8.85;;;4.50;99.90;;;;;;5098182;28;20104;-66
2021/12/10 06:38:01;;;;;;;14.70;9.70;;;4.60;99.90;;;;;;5098120;28;20055;-66
2021/12/10 06:40:30;;;;;;;14.32;8.80;;;4.70;99.90;;;;;;5098038;28;20096;-66
2021/12/10 06:42:56;;;;;;;15.75;9.18;;;4.40;99.90;;;;;;5116742;28;20079;-67
2021/12/10 06:45:28;;;;;;;13.95;9.05;;;4.50;99.90;;;;;;5097886;28;20515;-66
2021/12/10 06:47:58;;;;;;;11.27;8.17;;;4.60;99.90;;;;;;5116341;28;20085;-66
2021/12/10 06:50:27;;;;;;;15.15;8.35;;;4.00;99.90;;;;;;5115449;28;20046;-66
2021/12/10 06:52:54;;;;;;;13.10;8.65;;;4.20;99.90;;;;;;5115612;28;20056;-66
2021/12/10 06:55:20;;;;;;;13.38;8.75;;;4.40;99.90;;;;;;5097950;28;20055;-66
2021/12/10 06:57:47;;;;;;;12.13;8.10;;;4.20;99.90;;;;;;5115923;28;20071;-66
2021/12/10 07:00:20;;;;;;;12.82;9.23;;;4.20;99.90;;;;;;5115816;28;20052;-66
2021/12/10 07:02:46;;;;;;;15.48;9.05;;;4.20;99.90;;;;;;5098143;28;20054;-66
2021/12/10 07:05:13;;;;;;;13.98;8.43;;;4.10;99.90;;;;;;5115641;28;20464;-66
2021/12/10 07:07:40;;;;;;;11.60;8.38;;;4.40;99.90;;;;;;5115970;28;20059;-66
2021/12/10 07:10:09;;;;;;;10.52;7.25;;;4.10;99.90;;;;;;5115632;28;20047;-66
2021/12/10 07:12:36;;;;;;;12.50;8.27;;;4.10;99.90;;;;;;5115560;28;20089;-66
2021/12/10 07:15:06;;;;;;;13.13;8.63;;;4.20;99.90;;;;;;5116031;28;20375;-66
2021/12/10 07:17:32;;;;;;;12.48;7.95;;;4.00;99.90;;;;;;5098298;28;20134;-66
2021/12/10 07:19:58;;;;;;;13.32;8.32;;;4.50;99.90;;;;;;5116102;28;20171;-66
2021/12/10 07:22:24;;;;;;;13.13;7.60;;;4.00;99.90;;;;;;5115401;28;20491;-66
2021/12/10 07:24:50;;;;;;;13.35;7.78;;;3.90;99.90;;;;;;5115874;28;20130;-66
2021/12/10 07:27:16;;;;;;;11.18;7.38;;;3.90;99.90;;;;;;5097130;28;20047;-66
2021/12/10 07:29:42;;;;;;;13.88;7.80;;;4.40;99.90;;;;;;5115238;28;20440;-66
2021/12/10 07:32:08;;;;;;;14.02;7.80;;;3.90;99.90;;;;;;5115501;28;20040;-66
2021/12/10 07:34:33;;;;;;;13.15;7.13;;;3.90;99.90;;;;;;5115113;28;20040;-67
2021/12/10 07:36:59;;;;;;;14.13;7.85;;;3.80;99.90;;;;;;5097239;28;20506;-66
2021/12/10 07:39:25;;;;;;;11.32;7.57;;;3.80;99.90;;;;;;5096880;28;20050;-66
2021/12/10 07:41:51;;;;;;;9.90;6.88;;;3.80;99.90;;;;;;5114996;28;20048;-66
2021/12/10 07:44:16;;;;;;;10.90;6.63;;;3.60;99.90;;;;;;5115005;28;20079;-66
2021/12/10 07:46:42;;;;;;;10.55;6.97;;;4.90;99.90;;;;;;5114913;28;20126;-67
2021/12/10 07:49:15;;;;;;;10.27;6.55;;;4.30;99.90;;;;;;5114824;28;20047;-66
2021/12/10 07:51:44;;;;;;;10.32;6.43;;;3.90;99.90;;;;;;5114881;28;20074;-66
2021/12/10 07:54:11;;;;;;;12.32;6.53;;;4.10;99.90;;;;;;5097100;28;20054;-67
2021/12/10 07:56:37;;;;;;;11.13;7.28;;;3.80;99.90;;;;;;5114783;28;20047;-66
2021/12/10 07:59:03;;;;;;;10.93;6.50;;;3.80;99.90;;;;;;5114690;28;20047;-66
2021/12/10 08:01:30;;;;;;;9.63;6.15;;;3.80;99.90;;;;;;5114193;28;20043;-66
2021/12/10 08:04:00;;;;;;;11.80;6.22;;;4.50;99.90;;;;;;5114538;28;20075;-66
2021/12/10 08:06:27;;;;;;;12.40;6.38;;;4.30;99.90;;;;;;5114807;28;20052;-66
2021/12/10 08:08:54;;;;;;;9.95;6.07;;;3.60;99.90;;;;;;5114357;28;20047;-66
2021/12/10 08:11:22;;;;;;;9.23;6.57;;;4.60;99.90;;;;;;5114333;28;20058;-66
2021/12/10 08:13:49;;;;;;;8.68;6.18;;;3.80;99.90;;;;;;5096282;28;20085;-67
2021/12/10 08:16:15;;;;;;;10.18;5.97;;;3.80;99.90;;;;;;5114389;28;20048;-67
2021/12/10 08:18:41;;;;;;;9.27;5.60;;;3.80;99.90;;;;;;5114043;28;20495;-66
2021/12/10 08:21:08;;;;;;;8.60;6.30;;;3.80;99.90;;;;;;5114410;28;20083;-66
2021/12/10 08:23:35;;;;;;;10.77;6.38;;;3.90;99.90;;;;;;5096415;28;20063;-67
2021/12/10 08:26:01;;;;;;;10.13;6.00;;;3.80;99.90;;;;;;5114310;28;20044;-66
2021/12/10 08:28:27;;;;;;;8.70;5.47;;;4.00;99.90;;;;;;5114345;28;20448;-66
2021/12/10 08:30:55;;;;;;;9.85;5.72;;;3.80;99.90;;;;;;5114246;28;20073;-66
2021/12/10 08:33:22;;;;;;;9.32;5.70;;;3.90;99.90;;;;;;5114129;28;20036;-66
2021/12/10 08:35:52;;;;;;;8.98;5.65;;;3.90;99.90;;;;;;5114245;28;20043;-66
2021/12/10 08:38:18;;;;;;;8.27;5.72;;;3.90;99.90;;;;;;5114173;28;20390;-66
2021/12/10 08:40:55;;;;;;;7.82;5.15;;;3.90;99.90;;;;;;5096029;28;20039;-66
2021/12/10 08:43:21;;;;;;;8.70;5.35;;;3.60;99.90;;;;;;5114206;28;20031;-66
2021/12/10 08:45:47;;;;;;;8.40;6.07;;;3.60;99.90;;;;;;5114100;28;20126;-67
2021/12/10 08:48:13;;;;;;;10.13;6.18;;;3.90;99.90;;;;;;5078992;28;20126;-67
2021/12/10 08:50:41;;;;;;;8.35;5.25;;;3.90;99.90;;;;;;5096715;28;20065;-66
2021/12/10 08:53:12;;;;;;;10.02;5.95;;;3.90;99.90;;;;;;5096901;28;20127;-67
2021/12/10 08:55:41;;;;;;;9.40;5.72;;;4.20;99.90;;;;;;5114114;28;20044;-66
2021/12/10 08:58:08;;;;;;;9.80;5.68;;;4.40;99.90;;;;;;5114545;28;20079;-68
2021/12/10 09:00:35;;;;;;;9.38;5.55;;;4.70;99.90;;;;;;5096077;28;20120;-67
2021/12/10 09:03:01;;;;;;;12.05;5.80;;;3.90;99.90;;;;;;5114505;28;20054;-66
2021/12/10 09:05:28;;;;;;;8.48;5.63;;;4.30;99.90;;;;;;5078691;28;20055;-66
2021/12/10 09:07:53;;;;;;;11.50;6.13;;;3.90;99.90;;;;;;5113919;28;20460;-68
2021/12/10 09:10:24;;;;;;;8.30;6.00;;;3.90;99.90;;;;;;5095658;28;20289;-71
2021/12/10 09:12:50;;;;;;;13.40;7.75;;;4.50;99.90;;;;;;5116380;28;20400;-70
2021/12/10 09:15:20;;;;;;;10.00;6.72;;;3.70;99.90;;;;;;5117324;28;20050;-70
2021/12/10 09:17:47;;;;;;;10.75;6.30;;;3.40;99.90;;;;;;5117216;28;20216;-70
2021/12/10 09:20:21;;;;;;;8.88;5.57;;;3.80;99.90;;;;;;5099305;28;20059;-70
2021/12/10 09:22:48;;;;;;;11.05;6.53;;;3.90;99.90;;;;;;5117353;28;20088;-69
2021/12/10 09:25:16;;;;;;;10.48;6.93;;;4.80;99.90;;;;;;5117118;28;20048;-70
2021/12/10 09:27:43;;;;;;;11.45;6.47;;;4.30;99.90;;;;;;5117858;28;20043;-70
2021/12/10 09:30:14;;;;;;;9.27;5.80;;;4.00;99.90;;;;;;5099105;28;20051;-70
2021/12/10 09:32:40;;;;;;;10.23;6.43;;;4.50;99.90;;;;;;5117078;28;20054;-70
2021/12/10 09:35:09;;;;;;;9.57;6.30;;;4.00;99.90;;;;;;5116890;28;20043;-70
2021/12/10 09:37:37;;;;;;;8.75;5.75;;;4.00;99.90;;;;;;5117095;28;20048;-70
2021/12/10 09:40:10;;;;;;;9.85;6.18;;;5.50;99.90;;;;;;5116898;28;20109;-70
2021/12/10 09:42:36;;;;;;;10.35;6.03;;;4.00;99.90;;;;;;5098783;28;20130;-69
2021/12/10 09:45:04;;;;;;;14.95;6.53;;;4.10;99.90;;;;;;5098582;28;20083;-70
2021/12/10 09:47:30;;;;;;;10.07;6.20;;;4.10;99.90;;;;;;5116827;28;20095;-69
2021/12/10 09:49:56;;;;;;;10.27;4.85;;;5.30;99.90;;;;;;5116817;28;20051;-68
2021/12/10 09:52:25;;;;;;;9.32;5.10;;;4.10;99.90;;;;;;5117024;28;20417;-69
2021/12/10 09:54:52;;;;;;;9.02;5.32;;;4.10;99.90;;;;;;5116511;28;20494;-70
2021/12/10 09:57:24;;;;;;;14.38;7.15;;;4.20;99.90;;;;;;5116665;28;20096;-70
2021/12/10 09:59:53;;;;;;;9.18;4.75;;;5.00;99.90;;;;;;5116620;28;20115;-69
2021/12/10 10:02:20;;;;;;;9.32;5.35;;;4.20;99.90;;;;;;5098301;28;20051;-69
2021/12/10 10:04:49;;;;;;;10.13;5.15;;;4.20;99.90;;;;;;5116159;28;20055;-69
2021/12/10 10:07:26;;;;;;;7.50;5.05;;;4.70;99.90;;;;;;5116882;28;20047;-69
2021/12/10 10:09:55;;;;;;;8.02;4.85;;;4.60;99.90;;;;;;5116453;28;20376;-69
2021/12/10 10:12:31;;;;;;;7.72;4.90;;;4.60;99.90;;;;;;5098688;28;20048;-69
2021/12/10 10:14:59;;;;;;;7.82;5.07;;;4.60;99.90;;;;;;5116082;28;20051;-69
2021/12/10 10:17:25;;;;;;;8.57;5.45;;;4.50;99.90;;;;;;5116119;28;20051;-69
2021/12/10 10:19:52;;;;;;;5.72;4.22;;;4.30;99.90;;;;;;5116024;28;20047;-69
2021/12/10 10:22:23;;;;;;;7.82;4.97;;;4.30;99.90;;;;;;5116501;28;20489;-69
2021/12/10 10:24:49;;;;;;;8.30;4.97;;;4.20;99.90;;;;;;5116683;28;20043;-69
2021/12/10 10:27:31;;;;;;;6.18;4.30;;;4.70;99.90;;;;;;5116106;28;20139;-69
2021/12/10 10:30:15;;;;;;;7.82;4.70;;;4.40;99.90;;;;;;5116676;28;20047;-68
2021/12/10 10:32:45;;;;;;;11.43;6.38;;;4.40;99.90;;;;;;5116151;28;20148;-68
2021/12/10 10:35:22;;;;;;;8.80;5.13;;;4.40;99.90;;;;;;5116282;28;20055;-68
2021/12/10 10:37:49;;;;;;;8.90;4.90;;;4.40;99.90;;;;;;5116071;28;20048;-69
2021/12/10 10:40:21;;;;;;;10.27;4.45;;;4.40;99.90;;;;;;5098065;28;20181;-68
2021/12/10 10:42:48;;;;;;;7.57;4.63;;;5.50;99.90;;;;;;5116686;28;20040;-69
2021/12/10 10:45:20;;;;;;;8.43;4.53;;;4.60;99.90;;;;;;5116694;28;20058;-69
2021/12/10 10:47:47;;;;;;;7.20;3.90;;;4.80;99.90;;;;;;5116399;28;20116;-69
2021/12/10 10:50:18;;;;;;;7.90;3.97;;;5.20;99.90;;;;;;5116056;28;20090;-68
2021/12/10 10:53:08;;;;;;;8.52;4.53;;;4.50;99.90;;;;;;5116030;28;20048;-69
2021/12/10 10:55:47;;;;;;;7.88;3.95;;;4.50;99.90;;;;;;5098799;28;20481;-68
2021/12/10 10:58:16;;;;;;;6.13;3.42;;;4.50;99.90;;;;;;5115947;28;20148;-68
2021/12/10 11:01:10;;;;;;;5.95;3.95;;;4.80;99.90;;;;;;5115773;28;20051;-69
2021/12/10 11:03:40;;;;;;;;;;;4.70;99.90;;;;;;5116558;28;20487;-69
2021/12/10 11:06:13;;;;;;;7.63;4.30;;;4.70;99.90;;;;;;5115274;28;19943;-70
2021/12/10 11:08:43;;;;;;;5.25;3.42;;;4.70;99.90;;;;;;5116596;28;20047;-69
2021/12/10 11:11:16;;;;;;;8.02;4.85;;;4.80;99.90;;;;;;5080552;28;20074;-69
2021/12/10 11:13:49;;;;;;;8.73;5.05;;;4.80;99.90;;;;;;5097882;28;20044;-70
2021/12/10 11:16:19;;;;;;;5.38;3.30;;;4.90;99.90;;;;;;5115225;28;20130;-69
2021/12/10 11:19:06;;;;;;;9.52;4.38;;;5.10;99.90;;;;;;5097795;28;20380;-69
2021/12/10 11:21:38;;;;;;;6.50;4.18;;;4.90;99.90;;;;;;5116003;28;20047;-69
2021/12/10 11:24:34;;;;;;;6.38;3.20;;;5.00;99.90;;;;;;5115379;28;20044;-68
2021/12/10 11:27:34;;;;;;;5.88;3.58;;;5.00;99.90;;;;;;5115855;28;20091;-68
2021/12/10 11:30:03;;;;;;;6.75;4.10;;;4.90;99.90;;;;;;5100665;28;20138;-70
2021/12/10 11:32:49;;;;;;;6.15;3.15;;;5.10;99.90;;;;;;5096594;28;20043;-68
2021/12/10 11:35:21;;;;;;;5.88;3.20;;;5.10;99.90;;;;;;5110217;28;20122;-68
2021/12/10 11:38:05;;;;;;;4.20;2.92;;;5.10;99.90;;;;;;5111476;28;20066;-68
2021/12/10 11:40:40;;;;;;;4.93;3.50;;;5.20;99.90;;;;;;5111173;28;20096;-69
2021/12/10 11:46:25;;;;;;;7.15;4.22;;;5.20;99.90;;;;;;5093019;28;20051;-68
2021/12/10 11:48:54;;;;;;;;;;;5.30;99.90;;;;;;5110722;28;20062;-69
2021/12/10 11:51:47;;;;;;;7.40;3.58;;;5.20;99.90;;;;;;5111206;28;20087;-68
2021/12/10 11:54:26;;;;;;;6.10;3.58;;;3.90;99.90;;;;;;5102347;28;20135;-69
2021/12/10 11:57:17;;;;;;;6.03;2.80;;;5.30;99.90;;;;;;5111081;28;20047;-68
2021/12/10 12:00:18;;;;;;;5.50;3.28;;;5.30;99.90;;;;;;5081822;28;20152;-69
2021/12/10 12:02:48;;;;;;;8.80;3.60;;;5.30;99.90;;;;;;5111137;28;20052;-69
2021/12/10 12:05:17;;;;;;;6.32;3.10;;;5.30;99.90;;;;;;5114533;28;20056;-69
2021/12/10 12:07:46;;;;;;;5.93;2.90;;;5.40;99.90;;;;;;5114199;28;20055;-69
2021/12/10 12:10:39;;;;;;;6.95;3.33;;;5.40;99.90;;;;;;5096588;28;20127;-69
2021/12/10 12:15:48;;;;;;;7.97;3.00;;;5.40;99.90;;;;;;5114926;28;20066;-68
2021/12/10 12:18:25;;;;;;;6.13;4.28;;;6.80;99.90;;;;;;5114221;28;20071;-69
2021/12/10 12:20:52;;;;;;;6.55;3.70;;;5.50;99.90;;;;;;5114375;28;20051;-69
2021/12/10 12:26:25;;;;;;;7.32;3.72;;;5.50;99.90;;;;;;5114295;28;20104;-69
2021/12/10 12:29:03;;;;;;;7.22;3.88;;;6.50;99.90;;;;;;5114102;28;20051;-68
2021/12/10 12:31:31;;;;;;;6.15;3.60;;;5.50;99.90;;;;;;5112480;28;20118;-68
2021/12/10 12:34:03;;;;;;;7.20;3.97;;;5.60;99.90;;;;;;5110647;28;20123;-68
2021/12/10 12:36:49;;;;;;;6.40;3.90;;;5.50;99.90;;;;;;5110841;28;20083;-69
2021/12/10 12:39:28;;;;;;;6.07;3.50;;;5.50;99.90;;;;;;5095908;28;20407;-68
2021/12/10 12:41:54;;;;;;;7.03;3.28;;;5.50;99.90;;;;;;5110322;28;20114;-70
2021/12/10 12:44:23;;;;;;;7.32;3.72;;;5.50;99.90;;;;;;5111314;28;20044;-69
2021/12/10 12:47:09;;;;;;;6.50;3.80;;;5.80;99.90;;;;;;5116102;28;20039;-74
2021/12/10 12:49:47;;;;;;;6.10;3.50;;;5.50;99.90;;;;;;5117825;28;20047;-68
2021/12/10 12:52:17;;;;;;;6.07;3.42;;;5.50;99.90;;;;;;5118382;28;20063;-68
2021/12/10 12:55:19;;;;;;;7.80;4.10;;;5.50;99.90;;;;;;5118109;28;20043;-68
2021/12/10 12:58:16;;;;;;;6.25;3.40;;;5.50;99.90;;;;;;5117752;28;20051;-68
2021/12/10 13:01:04;;;;;;;6.88;3.45;;;5.50;99.90;;;;;;5099956;28;20066;-68
2021/12/10 13:03:39;;;;;;;7.85;4.30;;;5.50;99.90;;;;;;5118195;28;20050;-69
2021/12/10 13:06:26;;;;;;;6.03;3.53;;;5.50;99.90;;;;;;5095835;28;20055;-69
2021/12/10 13:09:16;;;;;;;5.90;3.40;;;5.50;99.90;;;;;;5096828;28;20040;-69
2021/12/10 13:12:02;;;;;;;5.82;3.70;;;5.50;99.90;;;;;;5095827;28;20115;-70
2021/12/10 13:15:00;;;;;;;7.22;2.60;;;5.50;99.90;;;;;;5095857;28;20040;-69
2021/12/10 13:17:44;;;;;;;5.05;3.05;;;5.50;99.90;;;;;;5095040;28;20059;-70